createdAt,value
2018-09-25T16:15:56.240Z,13.90
2018-09-25T16:18:30.074Z,13.80
2018-09-25T16:21:03.968Z,13.70
2018-09-25T16:23:37.785Z,13.70
2018-09-25T16:26:11.939Z,13.70
2018-09-25T16:28:45.800Z,13.80
2018-09-25T16:31:19.589Z,13.80
2018-09-25T16:33:53.298Z,13.90
2018-09-25T16:36:27.102Z,13.80
2018-09-25T16:39:00.873Z,13.80
2018-09-25T16:41:34.540Z,13.80
2018-09-25T16:44:08.258Z,13.70
2018-09-25T16:46:42.074Z,13.80
2018-09-25T16:49:15.730Z,13.70
2018-09-25T16:51:50.474Z,13.70
2018-09-25T16:54:24.142Z,13.60
2018-09-25T16:56:57.765Z,13.70
2018-09-25T16:59:31.513Z,13.60
2018-09-25T17:02:06.351Z,13.50
2018-09-25T17:04:40.065Z,13.50
2018-09-25T17:07:13.929Z,13.40
2018-09-25T17:09:47.731Z,13.40
2018-09-25T17:12:21.450Z,13.30
2018-09-25T17:14:55.186Z,13.30
2018-09-25T17:17:28.839Z,13.20
2018-09-25T17:20:02.696Z,13.10
2018-09-25T17:22:36.464Z,13.00
2018-09-25T17:25:10.324Z,12.90
2018-09-25T17:27:44.086Z,12.80
2018-09-25T17:30:17.953Z,12.70
2018-09-25T17:32:51.890Z,12.70
2018-09-25T17:35:25.664Z,12.70
2018-09-25T17:37:59.542Z,12.60
2018-09-25T17:40:33.376Z,12.40
2018-09-25T17:43:07.256Z,12.40
2018-09-25T17:45:41.189Z,12.30
2018-09-25T17:48:14.908Z,12.20
2018-09-25T17:50:48.805Z,12.00
2018-09-25T17:53:22.670Z,11.90
2018-09-25T17:55:56.593Z,11.80
2018-09-25T17:58:31.469Z,11.70
2018-09-25T18:01:05.404Z,11.60
2018-09-25T18:03:39.178Z,11.60
2018-09-25T18:06:13.118Z,11.50
2018-09-25T18:08:47.088Z,11.50
2018-09-25T18:11:20.860Z,11.40
2018-09-25T18:13:54.750Z,11.30
2018-09-25T18:16:28.425Z,11.30
2018-09-25T18:19:02.420Z,11.20
2018-09-25T18:21:36.316Z,11.20
2018-09-25T18:24:10.108Z,11.10
2018-09-25T18:26:44.039Z,11.00
2018-09-25T18:29:17.713Z,10.90
2018-09-25T18:31:51.582Z,10.90
2018-09-25T18:34:25.484Z,10.80
2018-09-25T18:36:59.230Z,10.80
2018-09-25T18:39:32.985Z,10.70
2018-09-25T18:42:06.835Z,10.70
2018-09-25T18:44:40.623Z,10.80
2018-09-25T18:47:14.437Z,10.70
2018-09-25T18:49:48.240Z,10.70
2018-09-25T18:52:21.904Z,10.70
2018-09-25T18:54:56.034Z,10.60
2018-09-25T18:57:29.961Z,10.60
2018-09-25T19:00:03.730Z,10.50
2018-09-25T19:02:37.379Z,10.50
2018-09-25T19:05:11.307Z,10.40
2018-09-25T19:07:45.300Z,10.30
2018-09-25T19:10:19.121Z,10.20
2018-09-25T19:12:53.126Z,10.10
2018-09-25T19:15:27.265Z,10.00
2018-09-25T19:18:01.116Z,10.00
2018-09-25T19:20:35.132Z,10.00
2018-09-25T19:23:08.985Z,10.00
2018-09-25T19:25:42.910Z,9.90
2018-09-25T19:28:17.923Z,9.90
2018-09-25T19:30:52.297Z,9.80
2018-09-25T19:33:26.472Z,9.80
2018-09-25T19:36:00.416Z,9.70
2018-09-25T19:38:34.282Z,9.70
2018-09-25T19:41:08.103Z,9.70
2018-09-25T19:43:41.994Z,9.70
2018-09-25T19:46:15.809Z,9.60
2018-09-25T19:48:49.708Z,9.60
2018-09-25T19:51:23.507Z,9.50
2018-09-25T19:53:57.334Z,9.40
2018-09-25T19:56:31.068Z,9.40
2018-09-25T19:59:05.062Z,9.30
2018-09-25T20:01:38.757Z,9.30
2018-09-25T20:04:12.560Z,9.30
2018-09-25T20:06:46.314Z,9.20
2018-09-25T20:09:20.188Z,9.10
2018-09-25T20:11:54.021Z,9.10
2018-09-25T20:14:27.723Z,9.10
2018-09-25T20:17:01.590Z,9.10
2018-09-25T20:19:35.640Z,9.10
2018-09-25T20:22:09.804Z,9.10
2018-09-25T20:24:43.787Z,9.10
2018-09-25T20:27:17.652Z,9.10
2018-09-25T20:29:51.440Z,9.00
2018-09-25T20:32:25.214Z,9.00
2018-09-25T20:34:58.868Z,8.90
2018-09-25T20:37:32.732Z,9.00
2018-09-25T20:40:06.334Z,8.90
2018-09-25T20:42:40.101Z,8.90
2018-09-25T20:45:13.856Z,8.80
2018-09-25T20:47:47.527Z,8.70
2018-09-25T20:50:21.442Z,8.70
2018-09-25T20:52:55.230Z,8.70
2018-09-25T20:55:29.148Z,8.60
2018-09-25T20:58:02.769Z,8.60
2018-09-25T21:00:36.658Z,8.60
2018-09-25T21:03:10.591Z,8.50
2018-09-25T21:05:44.331Z,8.50
2018-09-25T21:08:18.480Z,8.50
2018-09-25T21:10:52.089Z,8.40
2018-09-25T21:13:25.796Z,8.40
2018-09-25T21:16:07.222Z,8.40
2018-09-25T21:18:41.121Z,8.40
2018-09-25T21:21:14.906Z,8.40
2018-09-25T21:23:48.662Z,8.50
2018-09-25T21:26:22.399Z,8.40
2018-09-25T21:28:56.114Z,8.40
2018-09-25T21:31:29.917Z,8.40
2018-09-25T21:34:03.705Z,8.40
2018-09-25T21:36:37.507Z,8.40
2018-09-25T21:39:14.244Z,8.40
2018-09-25T21:41:48.675Z,8.40
2018-09-25T21:44:22.541Z,8.40
2018-09-25T21:46:56.326Z,8.30
2018-09-25T21:49:30.116Z,8.30
2018-09-25T21:52:03.979Z,8.40
2018-09-25T21:54:37.886Z,8.40
2018-09-25T21:57:11.691Z,8.40
2018-09-25T21:59:45.507Z,8.40
2018-09-25T22:02:19.340Z,8.40
2018-09-25T22:04:53.258Z,8.40
2018-09-25T22:07:26.855Z,8.30
2018-09-25T22:10:00.636Z,8.30
2018-09-25T22:12:34.351Z,8.20
2018-09-25T22:15:08.032Z,8.20
2018-09-25T22:17:41.807Z,8.20
2018-09-25T22:20:15.617Z,8.20
2018-09-25T22:22:49.394Z,8.10
2018-09-25T22:25:23.306Z,8.00
2018-09-25T22:27:57.304Z,8.00
2018-09-25T22:30:31.058Z,7.90
2018-09-25T22:33:04.879Z,7.90
2018-09-25T22:35:38.658Z,7.90
2018-09-25T22:38:12.549Z,7.90
2018-09-25T22:40:46.400Z,7.90
2018-09-25T22:43:20.142Z,8.00
2018-09-25T22:45:53.884Z,8.00
2018-09-25T22:48:27.618Z,7.90
2018-09-25T22:51:01.301Z,7.90
2018-09-25T22:53:34.949Z,7.80
2018-09-25T22:56:08.803Z,7.70
2018-09-25T22:58:42.572Z,7.70
2018-09-25T23:01:16.355Z,7.70
2018-09-25T23:03:50.113Z,7.70
2018-09-25T23:06:23.737Z,7.60
2018-09-25T23:08:57.631Z,7.60
2018-09-25T23:11:31.313Z,7.50
2018-09-25T23:14:05.105Z,7.40
2018-09-25T23:16:38.927Z,7.30
2018-09-25T23:19:13.146Z,7.30
2018-09-25T23:21:46.888Z,7.30
2018-09-25T23:24:20.594Z,7.30
2018-09-25T23:26:54.326Z,7.20
2018-09-25T23:29:28.061Z,7.30
2018-09-25T23:32:01.881Z,7.30
2018-09-25T23:34:35.480Z,7.20
2018-09-25T23:37:09.374Z,7.20
2018-09-25T23:39:48.940Z,7.20
2018-09-25T23:42:24.678Z,7.10
2018-09-25T23:45:09.510Z,7.20
2018-09-25T23:47:49.848Z,7.30
2018-09-25T23:50:39.099Z,7.20
2018-09-25T23:53:15.861Z,7.20
2018-09-25T23:55:50.230Z,7.20
2018-09-25T23:58:29.442Z,7.10
